Terminal Aerodrome Forecast
Issued by NWS

Home | Current Version | Previous Version | Text Only | Print | Product List | Glossary On
Versions: 1 2 3 4 5 6 7 8 9 10 11 12 13 14 15
897
FTUS42 KMLB 170225 AAA
TAFLEE
TAF AMD
KLEE 170225Z 1702/1724 06003KT P6SM SCT045 BKN250
     FM170400 36006KT P6SM VCSH SCT022 BKN080
      TEMPO 1706/1710 3SM SHRA BKN022
     FM171400 03012KT P6SM VCSH SCT025 BKN040
      TEMPO 1714/1718 3SM SHRA BKN025=

USA.gov is the U.S. government's official web portal to all federal, state and local government web resources and services.